Time;durP1;ratioP1;P1;durP2;ratioP2;P2;SDS_P1;SDS_P2;PMS_P1;PMS_P2;Temp;Humidity;BMP_temperature;BMP_pressure;BME280_temperature;BME280_humidity;BME280_pressure;Samples;Min_cycle;Max_cycle;Signal;HPM_P1;HPM_P2
2021/04/07 00:01:27;;;;;;;10.45;5.97;;;;;;;-0.72;70.97;99074.31;5014291;28;20097;-61
2021/04/07 00:03:53;;;;;;;9.35;5.47;;;;;;;-0.79;71.27;99076.81;5015123;28;20377;-62
2021/04/07 00:06:18;;;;;;;10.65;5.50;;;;;;;-0.79;71.66;99074.19;5014747;28;20038;-61
2021/04/07 00:08:48;;;;;;;16.52;5.63;;;;;;;-0.73;71.28;99077.91;5014794;28;20026;-61
2021/04/07 00:11:14;;;;;;;10.20;5.22;;;;;;;-0.71;71.75;99079.38;5014207;28;20065;-62
2021/04/07 00:13:39;;;;;;;12.38;5.38;;;;;;;-0.66;71.92;99095.47;5014966;28;20034;-62
2021/04/07 00:16:05;;;;;;;11.52;5.65;;;;;;;-0.66;71.31;99086.75;5014415;28;20476;-62
2021/04/07 00:18:30;;;;;;;16.60;6.15;;;;;;;-0.73;71.01;99091.88;5014794;28;20036;-61
2021/04/07 00:20:56;;;;;;;14.13;5.53;;;;;;;-0.78;71.50;99094.22;5014279;28;20041;-61
2021/04/07 00:23:21;;;;;;;13.40;5.70;;;;;;;-0.78;71.54;99101.31;5013540;28;20168;-61
2021/04/07 00:25:46;;;;;;;11.10;5.40;;;;;;;-0.74;71.26;99089.44;5014267;28;20038;-61
2021/04/07 00:28:12;;;;;;;11.75;5.22;;;;;;;-0.90;71.72;99085.91;4997299;28;20033;-61
2021/04/07 00:30:38;;;;;;;13.43;5.30;;;;;;;-0.93;72.38;99096.75;5014299;28;20065;-61
2021/04/07 00:33:04;;;;;;;9.70;5.50;;;;;;;-0.98;72.08;99093.00;5013395;28;20076;-61
2021/04/07 00:35:29;;;;;;;11.25;5.53;;;;;;;-1.00;72.06;99101.09;5014103;28;20134;-61
2021/04/07 00:37:55;;;;;;;14.80;5.35;;;;;;;-0.88;71.23;99094.44;5014528;28;20022;-61
2021/04/07 00:40:20;;;;;;;9.75;4.63;;;;;;;-0.93;71.87;99098.56;5014032;28;20129;-61
2021/04/07 00:42:49;;;;;;;11.75;5.40;;;;;;;-1.01;72.02;99099.44;5014655;28;20111;-61
2021/04/07 00:45:14;;;;;;;10.38;4.38;;;;;;;-1.00;71.58;99095.84;4996943;28;20018;-61
2021/04/07 00:47:40;;;;;;;11.73;4.40;;;;;;;-0.93;71.27;99104.66;5014367;28;20026;-61
2021/04/07 00:50:06;;;;;;;14.18;4.43;;;;;;;-0.97;70.57;99100.75;5013807;28;20411;-61
2021/04/07 00:52:32;;;;;;;8.45;4.03;;;;;;;-0.94;71.10;99095.13;5012934;28;20076;-61
2021/04/07 00:54:57;;;;;;;12.88;4.07;;;;;;;-1.03;70.73;99101.41;5014078;28;20022;-61
2021/04/07 00:57:23;;;;;;;11.15;4.10;;;;;;;-1.05;70.47;99102.56;5012451;28;20045;-61
2021/04/07 00:59:50;;;;;;;11.13;4.00;;;;;;;-1.10;70.53;99098.66;5014063;28;20026;-61
2021/04/07 01:02:15;;;;;;;12.35;4.40;;;;;;;-1.11;70.28;99099.63;5012366;28;20062;-61
2021/04/07 01:04:41;;;;;;;11.05;4.15;;;;;;;-1.15;70.41;99106.25;5012703;28;20499;-61
2021/04/07 01:07:06;;;;;;;10.15;3.78;;;;;;;-1.20;70.41;99103.31;4995878;28;20068;-61
2021/04/07 01:09:31;;;;;;;9.52;4.30;;;;;;;-1.20;70.46;99112.97;5012419;28;20030;-62
2021/04/07 01:11:57;;;;;;;13.13;4.55;;;;;;;-1.25;70.53;99110.84;5013352;28;20038;-61
2021/04/07 01:14:22;;;;;;;13.15;4.97;;;;;;;-1.28;70.75;99111.19;5012960;28;20092;-62
2021/04/07 01:16:48;;;;;;;14.70;4.57;;;;;;;-1.33;71.05;99108.25;5012097;28;20033;-61
2021/04/07 01:19:13;;;;;;;13.80;4.93;;;;;;;-1.31;70.82;99108.91;5013743;28;20033;-61
2021/04/07 01:21:38;;;;;;;10.00;4.15;;;;;;;-1.35;70.93;99107.59;5011978;28;20042;-61
2021/04/07 01:24:06;;;;;;;16.10;4.22;;;;;;;-1.42;71.36;99106.63;5012445;28;20095;-61
2021/04/07 01:26:32;;;;;;;14.82;4.93;;;;;;;-1.44;71.57;99103.38;5013058;28;20050;-61
2021/04/07 01:28:57;;;;;;;14.75;3.75;;;;;;;-1.44;71.31;99098.13;5013553;28;20104;-61
2021/04/07 01:31:23;;;;;;;10.85;4.15;;;;;;;-1.61;71.85;99098.13;5013108;28;20092;-61
2021/04/07 01:33:48;;;;;;;10.38;3.80;;;;;;;-1.63;74.68;99100.09;5013201;28;20456;-61
2021/04/07 01:36:13;;;;;;;9.93;4.13;;;;;;;-1.66;71.87;99104.88;5012812;28;20042;-62
2021/04/07 01:38:39;;;;;;;8.20;3.33;;;;;;;-1.63;72.11;99105.38;5013492;28;20022;-61
2021/04/07 01:41:04;;;;;;;12.35;4.05;;;;;;;-1.69;72.12;99110.50;5012962;28;20037;-61
2021/04/07 01:43:29;;;;;;;13.57;3.75;;;;;;;-1.64;72.03;99111.63;5012166;28;20022;-62
2021/04/07 01:45:56;;;;;;;16.00;3.50;;;;;;;-1.74;72.03;99108.34;5011658;28;20512;-61
2021/04/07 01:48:21;;;;;;;20.95;4.43;;;;;;;-1.72;72.52;99122.16;5011957;28;20033;-61
2021/04/07 01:50:48;;;;;;;16.75;3.47;;;;;;;-1.67;71.69;99113.75;4995213;28;20353;-61
2021/04/07 01:53:13;;;;;;;16.75;4.20;;;;;;;-1.71;72.33;99123.78;5013106;28;20465;-61
2021/04/07 01:55:39;;;;;;;18.08;4.20;;;;;;;-1.75;72.13;99128.56;5011479;28;20048;-61
2021/04/07 01:58:04;;;;;;;12.80;3.00;;;;;;;-1.75;72.38;99122.47;5013197;28;20025;-61
2021/04/07 02:00:30;;;;;;;8.68;3.05;;;;;;;-1.76;72.61;99126.91;5012857;28;20073;-61
2021/04/07 02:02:55;;;;;;;14.32;3.33;;;;;;;-1.66;72.70;99118.84;5012574;28;20393;-61
2021/04/07 02:05:21;;;;;;;6.88;3.20;;;;;;;-1.61;73.75;99124.41;5011341;28;20061;-61
2021/04/07 02:07:46;;;;;;;12.00;3.45;;;;;;;-1.65;71.83;99123.09;5012956;28;20029;-61
2021/04/07 02:10:12;;;;;;;12.32;3.90;;;;;;;-1.67;72.05;99129.50;5012269;28;20050;-61
2021/04/07 02:12:37;;;;;;;15.10;3.28;;;;;;;-1.70;71.92;99129.84;5013360;28;20121;-61
2021/04/07 02:15:22;;;;;;;16.80;3.45;;;;;;;-1.71;71.92;99142.19;5011592;28;20030;-62
2021/04/07 02:17:47;;;;;;;10.43;2.80;;;;;;;-1.78;73.19;99138.56;5013250;28;20049;-62
2021/04/07 02:20:13;;;;;;;8.57;3.20;;;;;;;-1.84;73.64;99137.41;5011758;28;20473;-62
2021/04/07 02:22:38;;;;;;;8.45;2.63;;;;;;;-1.73;73.88;99141.50;5013148;28;20500;-62
2021/04/07 02:25:05;;;;;;;11.68;2.75;;;;;;;-1.74;74.30;99142.50;5015925;28;20022;-62
2021/04/07 02:27:32;;;;;;;4.95;2.55;;;;;;;-1.77;74.90;99129.72;5019686;28;20053;-61
2021/04/07 02:29:57;;;;;;;11.57;2.90;;;;;;;-1.75;75.47;99139.06;5019803;28;20026;-61
2021/04/07 02:32:23;;;;;;;11.65;3.05;;;;;;;-1.74;74.67;99140.69;5019243;28;20049;-61
2021/04/07 02:34:49;;;;;;;9.40;3.20;;;;;;;-1.73;74.57;99136.25;5018821;28;20099;-61
2021/04/07 02:37:15;;;;;;;11.52;3.10;;;;;;;-1.82;74.90;99143.34;5019209;28;20480;-61
2021/04/07 02:39:41;;;;;;;7.65;4.03;;;;;;;-1.84;74.85;99139.22;5019649;28;20034;-61
2021/04/07 02:42:06;;;;;;;7.88;3.15;;;;;;;-1.87;74.37;99148.25;5017885;28;20038;-61
2021/04/07 02:44:32;;;;;;;14.65;3.70;;;;;;;-1.94;74.77;99139.41;5018412;28;20124;-61
2021/04/07 02:46:57;;;;;;;10.15;3.53;;;;;;;-1.92;75.11;99147.09;5017816;28;20484;-62
2021/04/07 02:49:23;;;;;;;10.52;3.47;;;;;;;-1.75;73.19;99140.84;5018663;28;20472;-62
2021/04/07 02:51:50;;;;;;;15.85;3.63;;;;;;;-1.73;73.05;99144.13;5018121;28;20480;-62
2021/04/07 02:54:15;;;;;;;10.02;3.40;;;;;;;-1.77;73.22;99135.78;5019361;28;20033;-61
2021/04/07 02:56:41;;;;;;;12.45;2.97;;;;;;;-1.65;72.06;99138.06;5018703;28;20072;-61
2021/04/07 02:59:06;;;;;;;9.90;3.38;;;;;;;-1.73;71.99;99147.59;5019030;28;20025;-61
2021/04/07 03:01:32;;;;;;;3.13;2.00;;;;;;;-1.70;71.69;99138.53;5018640;28;20408;-61
2021/04/07 03:03:57;;;;;;;7.00;3.35;;;;;;;-1.73;72.54;99146.78;5017604;28;20060;-61
2021/04/07 03:06:22;;;;;;;11.57;3.65;;;;;;;-1.69;71.46;99145.47;5018701;28;20050;-61
2021/04/07 03:08:48;;;;;;;11.75;3.80;;;;;;;-1.69;72.00;99148.09;5019069;28;20029;-61
2021/04/07 03:11:13;;;;;;;9.93;3.90;;;;;;;-1.84;72.49;99147.13;5018323;28;20455;-61
2021/04/07 03:13:39;;;;;;;11.70;3.90;;;;;;;-1.87;72.68;99160.56;5017497;28;20038;-61
2021/04/07 03:16:04;;;;;;;13.85;4.10;;;;;;;-1.93;73.30;99167.28;5018428;28;20476;-61
2021/04/07 03:18:30;;;;;;;15.07;4.05;;;;;;;-2.03;73.27;99166.63;5019094;28;20029;-62
2021/04/07 03:20:55;;;;;;;7.25;3.22;;;;;;;-2.03;73.01;99167.44;5018515;28;20038;-61
2021/04/07 03:23:21;;;;;;;6.60;3.10;;;;;;;-2.04;73.75;99160.56;5018918;28;20388;-61
2021/04/07 03:25:46;;;;;;;11.63;3.78;;;;;;;-2.05;73.68;99171.22;5018376;28;20046;-61
2021/04/07 03:28:12;;;;;;;6.00;2.40;;;;;;;-2.05;73.48;99173.84;5018769;28;20037;-62
2021/04/07 03:30:50;;;;;;;15.18;3.40;;;;;;;-2.07;73.24;99166.16;5018336;28;20045;-61
2021/04/07 03:33:20;;;;;;;12.38;3.80;;;;;;;-2.03;73.11;99166.63;5017393;28;20113;-61
2021/04/07 03:35:45;;;;;;;10.10;3.33;;;;;;;-2.15;73.23;99168.75;5016083;28;20511;-61
2021/04/07 03:38:11;;;;;;;12.95;3.85;;;;;;;-2.24;74.06;99164.47;5015238;28;20026;-61
2021/04/07 03:40:37;;;;;;;12.27;3.47;;;;;;;-2.18;73.91;99159.38;5015182;28;20042;-61
2021/04/07 03:43:06;;;;;;;11.55;3.65;;;;;;;-2.23;73.67;99166.13;5015529;28;20059;-61
2021/04/07 03:45:31;;;;;;;14.55;3.92;;;;;;;-2.33;74.04;99170.69;5015289;28;20037;-61
2021/04/07 03:47:57;;;;;;;13.40;3.88;;;;;;;-2.29;75.86;99169.41;5015658;28;20025;-61
2021/04/07 03:50:22;;;;;;;13.52;4.07;;;;;;;-2.36;74.85;99168.41;5015011;28;20037;-61
2021/04/07 03:52:48;;;;;;;10.68;3.53;;;;;;;-2.39;74.33;99174.78;5015218;28;20388;-61
2021/04/07 03:55:13;;;;;;;9.60;3.40;;;;;;;-2.42;74.66;99175.09;5011279;28;20092;-61
2021/04/07 03:57:39;;;;;;;10.75;4.10;;;;;;;-2.37;74.25;99178.09;5011445;28;20034;-61
2021/04/07 04:00:05;;;;;;;11.65;3.85;;;;;;;-2.37;74.54;99178.09;5014877;28;20034;-62
2021/04/07 04:02:30;;;;;;;11.15;3.92;;;;;;;-2.41;76.10;99185.44;5015159;28;20432;-61
2021/04/07 04:04:55;;;;;;;14.32;4.38;;;;;;;-2.43;75.80;99181.34;5015106;28;20030;-61
2021/04/07 04:07:21;;;;;;;7.80;3.75;;;;;;;-2.41;74.73;99185.44;5013448;28;20042;-62
2021/04/07 04:09:46;;;;;;;11.10;3.65;;;;;;;-2.30;74.36;99194.00;5014813;28;20061;-61
2021/04/07 04:12:12;;;;;;;16.23;4.13;;;;;;;-2.19;74.19;99196.34;5014520;28;20389;-61
2021/04/07 04:14:37;;;;;;;9.05;3.40;;;;;;;-2.14;73.65;99190.59;5015195;28;20029;-61
2021/04/07 04:17:03;;;;;;;8.85;3.83;;;;;;;-2.17;74.14;99194.38;5014653;28;20050;-61
2021/04/07 04:19:28;;;;;;;5.97;3.60;;;;;;;-2.12;73.48;99188.59;5015067;28;20076;-61
2021/04/07 04:21:53;;;;;;;5.82;3.30;;;;;;;-2.06;73.03;99204.56;5014517;28;20042;-61
2021/04/07 04:24:19;;;;;;;12.48;4.10;;;;;;;-2.07;73.37;99209.94;5014734;28;20116;-61
2021/04/07 04:26:44;;;;;;;10.40;4.15;;;;;;;-1.97;74.56;99208.84;5014503;28;20045;-61
2021/04/07 04:29:10;;;;;;;12.77;4.30;;;;;;;-1.97;73.19;99203.59;5013769;28;20037;-61
2021/04/07 04:31:35;;;;;;;6.40;3.42;;;;;;;-1.94;73.71;99210.31;5014417;28;20556;-61
2021/04/07 04:34:00;;;;;;;16.85;4.28;;;;;;;-1.91;73.67;99199.47;5014641;28;20026;-61
2021/04/07 04:36:26;;;;;;;13.57;3.83;;;;;;;-1.82;75.94;99211.66;5013116;28;20475;-62
2021/04/07 04:38:51;;;;;;;10.77;4.75;;;;;;;-1.95;76.71;99213.91;5014507;28;20026;-62
2021/04/07 04:41:17;;;;;;;13.13;4.30;;;;;;;-1.85;77.14;99221.66;5013891;28;20042;-61
2021/04/07 04:43:42;;;;;;;13.38;4.72;;;;;;;-1.96;78.06;99220.97;5014523;28;20080;-61
2021/04/07 04:46:07;;;;;;;14.50;4.22;;;;;;;-1.93;78.74;99224.28;5014180;28;20037;-62
2021/04/07 04:48:33;;;;;;;11.48;4.45;;;;;;;-1.94;79.15;99220.00;5014350;28;20029;-61
2021/04/07 04:50:58;;;;;;;11.05;4.03;;;;;;;-1.92;78.89;99226.75;5014114;28;20390;-61
2021/04/07 04:53:24;;;;;;;13.90;4.43;;;;;;;-1.96;79.51;99231.50;5014278;28;20033;-61
2021/04/07 04:55:49;;;;;;;12.27;4.72;;;;;;;-1.98;80.26;99233.44;5014026;28;20042;-61
2021/04/07 04:58:15;;;;;;;16.60;4.10;;;;;;;-1.88;80.12;99221.97;5014309;28;20021;-61
2021/04/07 05:00:40;;;;;;;10.63;4.78;;;;;;;-1.98;80.36;99228.19;5013957;28;20455;-62
2021/04/07 05:03:05;;;;;;;13.77;4.78;;;;;;;-2.04;81.08;99234.09;5014153;28;20057;-61
2021/04/07 05:05:31;;;;;;;14.70;5.28;;;;;;;-2.00;81.03;99238.06;5013871;28;20042;-61
2021/04/07 05:07:57;;;;;;;11.40;5.15;;;;;;;-2.00;81.76;99232.81;5014002;28;20030;-61
2021/04/07 05:10:22;;;;;;;9.73;4.65;;;;;;;-2.03;81.87;99235.75;5013313;28;20038;-62
2021/04/07 05:12:47;;;;;;;16.70;5.82;;;;;;;-1.97;81.88;99235.13;5013693;28;20030;-62
2021/04/07 05:15:13;;;;;;;15.55;5.82;;;;;;;-1.93;81.33;99237.41;5013724;28;20038;-62
2021/04/07 05:17:39;;;;;;;10.65;5.22;;;;;;;-1.97;81.96;99242.19;5014415;28;20394;-61
2021/04/07 05:20:06;;;;;;;12.05;4.93;;;;;;;-1.94;82.24;99235.78;5013527;28;20021;-61
2021/04/07 05:22:31;;;;;;;14.73;5.32;;;;;;;-1.91;81.86;99238.88;5013938;28;20029;-61
2021/04/07 05:24:57;;;;;;;10.75;4.28;;;;;;;-1.80;81.35;99235.97;5012725;28;20030;-61
2021/04/07 05:27:22;;;;;;;14.20;5.80;;;;;;;-1.67;81.29;99230.22;5013183;28;20048;-61
2021/04/07 05:29:47;;;;;;;10.90;4.90;;;;;;;-1.64;81.00;99239.59;5013810;28;20046;-61
2021/04/07 05:32:13;;;;;;;18.48;5.78;;;;;;;-1.53;80.51;99239.25;5013241;28;20041;-61
2021/04/07 05:34:38;;;;;;;15.50;5.30;;;;;;;-1.71;81.38;99241.22;5013750;28;20030;-61
2021/04/07 05:37:04;;;;;;;10.45;5.45;;;;;;;-1.67;81.12;99248.63;5013341;28;20116;-61
2021/04/07 05:39:29;;;;;;;10.75;4.20;;;;;;;-1.58;80.44;99242.34;5013482;28;20413;-61
2021/04/07 05:41:55;;;;;;;10.20;4.07;;;;;;;-1.55;79.89;99247.31;5013280;28;20049;-61
2021/04/07 05:44:20;;;;;;;13.70;4.47;;;;;;;-1.50;80.41;99244.16;5012224;28;20034;-61
2021/04/07 05:46:46;;;;;;;14.77;5.18;;;;;;;-1.48;79.41;99250.09;5013293;28;20477;-61
2021/04/07 05:49:11;;;;;;;7.85;3.90;;;;;;;-1.51;80.00;99247.78;5013724;28;20037;-61
2021/04/07 05:51:37;;;;;;;16.00;4.93;;;;;;;-1.42;78.64;99246.81;5013010;28;20042;-61
2021/04/07 05:54:02;;;;;;;8.07;4.60;;;;;;;-1.27;78.18;99261.91;5013411;28;20041;-61
2021/04/07 05:56:28;;;;;;;11.20;5.38;;;;;;;-1.15;76.93;99253.53;5012922;28;20042;-61
2021/04/07 05:58:53;;;;;;;13.00;5.38;;;;;;;-1.15;76.83;99260.59;5013168;28;20026;-61
2021/04/07 06:01:19;;;;;;;10.77;5.80;;;;;;;-1.16;77.45;99259.78;5011501;28;20489;-61
2021/04/07 06:03:44;;;;;;;13.55;5.50;;;;;;;-1.04;76.70;99267.34;5013447;28;20037;-61
2021/04/07 06:06:10;;;;;;;13.98;5.20;;;;;;;-1.06;76.85;99266.69;5012774;28;20436;-61
2021/04/07 06:08:36;;;;;;;12.73;5.50;;;;;;;-1.00;76.26;99268.63;5013227;28;20029;-61
2021/04/07 06:11:01;;;;;;;15.45;5.82;;;;;;;-0.92;75.90;99272.09;5012557;28;20042;-62
2021/04/07 06:13:27;;;;;;;15.20;5.35;;;;;;;-0.70;75.45;99282.88;5013234;28;20088;-61
2021/04/07 06:15:52;;;;;;;18.75;6.10;;;;;;;-0.67;74.75;99269.41;5013082;28;20046;-61
2021/04/07 06:18:18;;;;;;;11.48;4.95;;;;;;;-0.57;73.83;99279.75;5011980;28;20029;-61
2021/04/07 06:20:49;;;;;;;11.25;5.18;;;;;;;-0.25;73.80;99284.88;5012602;28;20033;-61
2021/04/07 06:23:14;;;;;;;9.05;5.18;;;;;;;0.33;70.22;99284.56;5013283;28;20030;-62
2021/04/07 06:25:41;;;;;;;46.10;24.02;;;;;;;0.89;67.27;99284.31;5012772;28;20559;-62
2021/04/07 06:28:08;;;;;;;41.97;23.55;;;;;;;0.83;67.16;99283.22;5013356;28;20018;-61
2021/04/07 06:30:46;;;;;;;88.60;48.03;;;;;;;0.62;68.09;99286.50;5011474;28;20030;-62
2021/04/07 06:33:26;;;;;;;13.38;6.85;;;;;;;0.41;69.58;99287.97;5013018;28;20472;-61
2021/04/07 06:35:53;;;;;;;53.33;27.65;;;;;;;0.34;69.82;99299.38;5011508;28;20038;-62
2021/04/07 06:38:19;;;;;;;57.47;30.38;;;;;;;0.28;70.42;99306.19;5011632;28;20026;-61
2021/04/07 06:40:44;;;;;;;17.92;10.18;;;;;;;0.01;73.97;99299.56;5011230;28;20057;-61
2021/04/07 06:43:10;;;;;;;50.95;29.33;;;;;;;0.02;71.52;99303.84;5012935;28;20030;-61
2021/04/07 06:45:37;;;;;;;31.05;19.02;;;;;;;0.02;72.38;99303.84;5003033;28;20042;-61
2021/04/07 06:48:03;;;;;;;13.52;7.03;;;;;;;0.09;72.95;99306.63;4993515;28;20026;-61
2021/04/07 06:50:29;;;;;;;43.80;21.90;;;;;;;0.05;73.22;99310.56;4992955;28;20046;-62
2021/04/07 06:52:59;;;;;;;15.35;8.85;;;;;;;0.01;73.74;99314.56;4993465;28;20487;-61
2021/04/07 06:55:25;;;;;;;13.30;7.57;;;;;;;-0.04;75.22;99312.44;4993043;28;20382;-61
2021/04/07 06:57:50;;;;;;;14.98;9.38;;;;;;;-0.05;76.19;99321.31;4993945;28;20025;-62
2021/04/07 07:00:16;;;;;;;16.63;9.13;;;;;;;0.08;76.33;99320.81;4993170;28;20030;-62
2021/04/07 07:02:42;;;;;;;12.80;6.55;;;;;;;-0.06;77.32;99314.44;4993321;28;20081;-63
2021/04/07 07:05:08;;;;;;;12.25;6.13;;;;;;;-0.01;76.81;99317.38;4992947;28;20022;-61
2021/04/07 07:07:33;;;;;;;9.80;5.25;;;;;;;0.08;76.68;99316.34;4993254;28;20026;-61
2021/04/07 07:09:59;;;;;;;7.38;4.82;;;;;;;0.16;76.41;99318.94;4991562;28;20058;-61
2021/04/07 07:12:25;;;;;;;5.72;2.78;;;;;;;-0.08;75.73;99311.94;4994718;28;20053;-61
2021/04/07 07:14:50;;;;;;;6.00;3.65;;;;;;;0.17;75.76;99309.19;4995728;28;20069;-61
2021/04/07 07:17:26;;;;;;;6.57;4.07;;;;;;;0.17;75.89;99306.56;4996518;28;20473;-61
2021/04/07 07:19:51;;;;;;;7.57;4.18;;;;;;;0.27;74.75;99303.72;4996525;28;20110;-61
2021/04/07 07:22:20;;;;;;;8.35;3.78;;;;;;;0.50;74.17;99315.13;5014511;28;20041;-61
2021/04/07 07:24:49;;;;;;;7.28;4.10;;;;;;;0.53;73.39;99312.13;5015171;28;20034;-61
2021/04/07 07:27:15;;;;;;;7.18;3.80;;;;;;;0.68;72.18;99306.91;4998766;28;20178;-61
2021/04/07 07:29:40;;;;;;;10.45;4.45;;;;;;;0.61;72.40;99301.50;5014979;28;20034;-61
2021/04/07 07:32:08;;;;;;;8.15;3.58;;;;;;;0.52;72.81;99299.09;5014600;28;20041;-61
2021/04/07 07:34:34;;;;;;;9.23;4.20;;;;;;;0.60;72.36;99305.16;5015922;28;20427;-61
2021/04/07 07:37:00;;;;;;;9.18;3.80;;;;;;;0.66;71.96;99308.06;5015822;28;20121;-61
2021/04/07 07:39:36;;;;;;;8.02;3.67;;;;;;;0.69;71.79;99302.44;5014895;28;20033;-61
2021/04/07 07:42:05;;;;;;;8.77;3.55;;;;;;;0.82;71.28;99314.06;5015615;28;20100;-61
2021/04/07 07:44:32;;;;;;;10.07;3.80;;;;;;;0.91;70.78;99313.97;5015831;28;20080;-61
2021/04/07 07:47:02;;;;;;;5.93;3.28;;;;;;;1.18;69.83;99317.88;5014211;28;20480;-61
2021/04/07 07:49:28;;;;;;;9.00;3.65;;;;;;;1.22;69.37;99321.78;5015937;28;20022;-61
2021/04/07 07:51:53;;;;;;;7.30;3.30;;;;;;;1.04;69.30;99320.28;5014097;28;20092;-61
2021/04/07 07:54:20;;;;;;;7.65;3.20;;;;;;;1.01;68.67;99317.19;5015755;28;20041;-61
2021/04/07 07:56:46;;;;;;;5.22;2.65;;;;;;;0.86;68.57;99314.50;5015198;28;20546;-61
2021/04/07 07:59:11;;;;;;;13.10;3.53;;;;;;;0.87;68.29;99316.13;5015599;28;20029;-62
2021/04/07 08:01:44;;;;;;;6.18;3.10;;;;;;;0.98;68.84;99320.19;5015255;28;20381;-62
2021/04/07 08:04:09;;;;;;;7.43;3.13;;;;;;;0.99;66.92;99317.34;5015544;28;20026;-61
2021/04/07 08:06:34;;;;;;;41.60;23.55;;;;;;;1.09;66.70;99322.38;5014793;28;20052;-62
2021/04/07 08:09:00;;;;;;;26.17;13.25;;;;;;;1.13;66.90;99320.22;5015511;28;20280;-61
2021/04/07 08:11:26;;;;;;;46.17;19.35;;;;;;;1.10;66.66;99320.56;5014686;28;20404;-62
2021/04/07 08:13:53;;;;;;;22.92;12.60;;;;;;;1.13;65.43;99323.69;5013969;28;20062;-62
2021/04/07 08:16:20;;;;;;;31.00;16.60;;;;;;;1.18;65.36;99337.16;5013535;28;20034;-61
2021/04/07 08:18:46;;;;;;;68.45;32.53;;;;;;;1.27;64.71;99333.47;5015507;28;20048;-62
2021/04/07 08:21:12;;;;;;;28.75;13.50;;;;;;;1.32;64.13;99338.19;5013684;28;20045;-61
2021/04/07 08:23:38;;;;;;;24.63;12.85;;;;;;;1.38;64.47;99336.66;5014735;28;20542;-60
2021/04/07 08:26:03;;;;;;;26.83;13.10;;;;;;;1.56;64.53;99333.66;5014741;28;20042;-60
2021/04/07 08:28:29;;;;;;;22.08;13.52;;;;;;;1.44;64.07;99344.66;4997609;28;20461;-61
2021/04/07 08:30:55;;;;;;;16.67;8.60;;;;;;;1.24;64.43;99338.25;5013470;28;20042;-61
2021/04/07 08:33:21;;;;;;;21.80;9.63;;;;;;;1.29;65.46;99333.25;5013697;28;20030;-61
2021/04/07 08:35:47;;;;;;;13.80;7.35;;;;;;;0.98;66.41;99338.66;5013476;28;20072;-61
2021/04/07 08:38:12;;;;;;;18.50;10.57;;;;;;;1.03;66.78;99338.97;5013919;28;20380;-60
2021/04/07 08:40:42;;;;;;;11.38;4.75;;;;;;;0.95;67.88;99339.00;5014377;28;20067;-60
2021/04/07 08:43:10;;;;;;;14.82;7.07;;;;;;;0.75;69.27;99338.66;5014610;28;20113;-60
2021/04/07 08:45:48;;;;;;;15.05;8.30;;;;;;;0.59;71.30;99345.69;5013132;28;20370;-60
2021/04/07 08:48:26;;;;;;;10.70;5.35;;;;;;;0.53;72.18;99346.41;5013246;28;20440;-60
2021/04/07 08:51:03;;;;;;;25.48;6.95;;;;;;;0.43;72.97;99343.19;5013131;28;20069;-62
2021/04/07 08:53:33;;;;;;;19.55;7.63;;;;;;;0.34;73.96;99344.22;5013121;28;20042;-61
2021/04/07 08:56:10;;;;;;;13.10;5.72;;;;;;;0.35;73.71;99337.94;5013943;28;20046;-60
2021/04/07 08:59:07;;;;;;;18.60;4.53;;;;;;;0.29;73.32;99328.09;5013320;28;20030;-61
2021/04/07 09:01:36;;;;;;;10.63;4.97;;;;;;;0.18;74.11;99343.31;5013619;28;20046;-61
2021/04/07 09:04:15;;;;;;;15.23;4.80;;;;;;;0.25;74.25;99345.25;5013060;28;20022;-60
2021/04/07 09:06:57;;;;;;;14.98;7.50;;;;;;;0.16;74.01;99345.28;5014020;28;20034;-60
2021/04/07 09:09:23;;;;;;;12.13;5.93;;;;;;;0.15;73.25;99342.81;5014012;28;20057;-60
2021/04/07 09:11:48;;;;;;;20.08;10.35;;;;;;;0.21;72.99;99355.31;5012428;28;20072;-60
2021/04/07 09:14:14;;;;;;;21.08;8.50;;;;;;;0.32;72.93;99348.81;5013880;28;20083;-60
2021/04/07 09:16:40;;;;;;;9.60;5.22;;;;;;;0.29;72.99;99354.47;5012783;28;20042;-60
2021/04/07 09:19:22;;;;;;;11.07;3.90;;;;;;;0.40;70.68;99340.88;5012945;28;20037;-60
2021/04/07 09:22:06;;;;;;;12.38;4.60;;;;;;;0.58;70.24;99349.34;5013607;28;20038;-61
2021/04/07 09:24:43;;;;;;;8.57;4.20;;;;;;;0.68;69.92;99349.13;5013928;28;20033;-61
2021/04/07 09:27:21;;;;;;;7.28;4.03;;;;;;;0.66;68.11;99350.28;5013810;28;20393;-61
2021/04/07 09:29:47;;;;;;;8.00;3.53;;;;;;;0.80;67.15;99358.25;5013709;28;20522;-61
2021/04/07 09:32:16;;;;;;;8.25;3.70;;;;;;;0.85;66.68;99361.19;5012262;28;20042;-61
2021/04/07 09:34:42;;;;;;;9.93;3.80;;;;;;;0.91;66.77;99359.66;5013107;28;20125;-61
2021/04/07 09:37:08;;;;;;;8.65;3.70;;;;;;;0.95;65.22;99366.25;5013447;28;20124;-61
2021/04/07 09:39:34;;;;;;;8.05;4.30;;;;;;;1.00;66.78;99368.31;5012635;28;20426;-60
2021/04/07 09:41:59;;;;;;;9.20;3.90;;;;;;;1.06;66.33;99371.09;5012208;28;20034;-61
2021/04/07 09:44:24;;;;;;;5.18;3.08;;;;;;;1.16;65.63;99364.75;5012533;28;20038;-60
2021/04/07 09:46:52;;;;;;;5.95;3.42;;;;;;;1.21;64.61;99359.75;4996074;28;20053;-61
2021/04/07 09:49:18;;;;;;;7.38;2.80;;;;;;;1.32;65.05;99367.22;5013988;28;20412;-63
2021/04/07 09:51:45;;;;;;;6.63;3.30;;;;;;;1.19;64.32;99367.03;5013403;28;20417;-62
2021/04/07 09:54:21;;;;;;;7.95;3.63;;;;;;;1.27;64.79;99359.03;5012693;28;20026;-62
2021/04/07 09:56:48;;;;;;;9.35;3.47;;;;;;;1.24;65.13;99359.38;5012548;28;20539;-63
2021/04/07 09:59:13;;;;;;;6.28;3.38;;;;;;;1.35;65.26;99356.31;5012292;28;20064;-62
2021/04/07 10:01:39;;;;;;;18.15;11.88;;;;;;;1.41;64.86;99373.28;4995665;28;20045;-62
2021/04/07 10:04:05;;;;;;;16.23;10.43;;;;;;;1.37;65.51;99364.88;5012685;28;20026;-63
2021/04/07 10:06:30;;;;;;;9.50;5.78;;;;;;;1.38;66.23;99369.16;4995743;28;20389;-63
2021/04/07 10:09:09;;;;;;;7.38;4.68;;;;;;;1.45;66.63;99371.91;5013843;28;20434;-62
2021/04/07 10:11:41;;;;;;;10.23;4.97;;;;;;;1.44;67.09;99381.63;4995271;28;20038;-63
2021/04/07 10:14:07;;;;;;;9.98;5.32;;;;;;;1.26;67.27;99383.81;5013964;28;20057;-62
2021/04/07 10:16:37;;;;;;;17.33;6.82;;;;;;;1.20;67.81;99395.06;5011582;28;20093;-60
2021/04/07 10:19:07;;;;;;;19.17;9.02;;;;;;;1.27;67.52;99385.44;5013658;28;20487;-60
2021/04/07 10:21:32;;;;;;;10.82;7.32;;;;;;;1.20;67.02;99393.25;5005663;28;20088;-60
2021/04/07 10:23:59;;;;;;;11.57;6.35;;;;;;;1.34;66.90;99394.28;5008487;28;20412;-61
2021/04/07 10:26:24;;;;;;;10.68;5.35;;;;;;;1.36;66.05;99394.13;5012822;28;20099;-61
2021/04/07 10:28:56;;;;;;;12.30;4.72;;;;;;;1.30;66.84;99395.66;4996046;28;20022;-61
2021/04/07 10:31:21;;;;;;;7.40;4.35;;;;;;;1.16;68.15;99405.16;5012753;28;20481;-61
2021/04/07 10:33:47;;;;;;;11.27;5.50;;;;;;;1.07;69.48;99412.34;5012999;28;20034;-60
2021/04/07 10:36:12;;;;;;;7.65;4.43;;;;;;;0.98;70.50;99412.56;5012610;28;20038;-63
2021/04/07 10:38:38;;;;;;;7.22;4.25;;;;;;;0.88;71.33;99417.25;5013277;28;20022;-60
2021/04/07 10:41:04;;;;;;;10.45;5.65;;;;;;;0.85;72.02;99413.97;5011447;28;20087;-61
2021/04/07 10:43:35;;;;;;;6.75;3.85;;;;;;;0.95;72.40;99416.38;5013169;28;20053;-61
2021/04/07 10:46:04;;;;;;;5.82;4.15;;;;;;;0.85;73.79;99407.88;5014166;28;20533;-61
2021/04/07 10:48:30;;;;;;;6.93;4.38;;;;;;;0.94;74.20;99414.72;5017081;28;20096;-61
2021/04/07 10:50:57;;;;;;;7.65;5.00;;;;;;;0.92;74.46;99408.78;5016655;28;20485;-61
2021/04/07 10:53:29;;;;;;;9.73;4.30;;;;;;;0.82;75.27;99410.84;5016628;28;20030;-61
2021/04/07 10:55:57;;;;;;;9.02;4.68;;;;;;;1.00;74.52;99416.69;5016321;28;20041;-61
2021/04/07 10:58:28;;;;;;;7.72;4.55;;;;;;;0.99;74.91;99409.75;5016551;28;20018;-60
2021/04/07 11:00:54;;;;;;;8.20;4.97;;;;;;;1.00;75.25;99423.75;5016357;28;20030;-61
2021/04/07 11:03:32;;;;;;;7.65;5.03;;;;;;;0.92;75.56;99422.00;4998915;28;20306;-61
2021/04/07 11:05:58;;;;;;;9.43;5.05;;;;;;;0.84;76.21;99419.41;5016347;28;20042;-60
2021/04/07 11:08:33;;;;;;;11.60;4.78;;;;;;;0.88;76.82;99419.91;5016398;28;20079;-60
2021/04/07 11:10:58;;;;;;;8.40;4.70;;;;;;;0.58;78.56;99423.19;5014542;28;20050;-60
2021/04/07 11:13:24;;;;;;;8.57;4.82;;;;;;;0.48;79.24;99422.59;5016647;28;20049;-60
2021/04/07 11:15:49;;;;;;;8.50;5.13;;;;;;;0.37;80.21;99420.31;5014704;28;20041;-60
2021/04/07 11:18:15;;;;;;;8.15;5.68;;;;;;;0.43;80.23;99430.19;5015248;28;20030;-61
2021/04/07 11:20:41;;;;;;;9.25;5.60;;;;;;;0.45;80.79;99427.38;5014707;28;20061;-60
2021/04/07 11:23:07;;;;;;;7.10;5.00;;;;;;;0.56;80.45;99425.19;5016468;28;20101;-60
2021/04/07 11:25:33;;;;;;;12.40;6.57;;;;;;;0.51;81.25;99440.69;5015808;28;20056;-61
2021/04/07 11:27:58;;;;;;;10.13;5.50;;;;;;;0.50;81.70;99439.06;5031540;28;20026;-61
2021/04/07 11:30:25;;;;;;;9.90;5.90;;;;;;;0.49;81.87;99440.03;5015603;28;20049;-61